sensor_id;sensor_type;location;lat;lon;timestamp;P1;durP1;ratioP1;P2;durP2;ratioP2
50709;SDS011;37033;49.994;21.992;2023-02-28T00:02:59;31.20;;;14.10;;
50709;SDS011;37033;49.994;21.992;2023-02-28T00:05:49;30.80;;;14.40;;
50709;SDS011;37033;49.994;21.992;2023-02-28T00:08:39;34.70;;;14.40;;
50709;SDS011;37033;49.994;21.992;2023-02-28T00:11:29;30.20;;;13.20;;
50709;SDS011;37033;49.994;21.992;2023-02-28T00:14:18;33.00;;;14.80;;
50709;SDS011;37033;49.994;21.992;2023-02-28T00:17:08;32.70;;;14.50;;
50709;SDS011;37033;49.994;21.992;2023-02-28T00:19:57;43.90;;;15.50;;
50709;SDS011;37033;49.994;21.992;2023-02-28T00:22:56;41.50;;;17.80;;
50709;SDS011;37033;49.994;21.992;2023-02-28T00:25:46;36.20;;;14.90;;
50709;SDS011;37033;49.994;21.992;2023-02-28T00:28:35;33.90;;;16.10;;
50709;SDS011;37033;49.994;21.992;2023-02-28T00:31:26;35.10;;;15.90;;
50709;SDS011;37033;49.994;21.992;2023-02-28T00:34:16;35.50;;;15.10;;
50709;SDS011;37033;49.994;21.992;2023-02-28T00:37:06;39.70;;;15.60;;
50709;SDS011;37033;49.994;21.992;2023-02-28T00:39:58;37.30;;;16.40;;
50709;SDS011;37033;49.994;21.992;2023-02-28T00:42:49;41.80;;;16.90;;
50709;SDS011;37033;49.994;21.992;2023-02-28T00:45:38;40.10;;;16.10;;
50709;SDS011;37033;49.994;21.992;2023-02-28T00:48:28;37.50;;;16.10;;
50709;SDS011;37033;49.994;21.992;2023-02-28T00:51:18;39.50;;;18.00;;
50709;SDS011;37033;49.994;21.992;2023-02-28T00:54:08;42.10;;;16.10;;
50709;SDS011;37033;49.994;21.992;2023-02-28T00:56:57;39.40;;;16.10;;
50709;SDS011;37033;49.994;21.992;2023-02-28T00:59:47;41.00;;;16.00;;
50709;SDS011;37033;49.994;21.992;2023-02-28T01:02:37;39.80;;;15.50;;
50709;SDS011;37033;49.994;21.992;2023-02-28T01:05:26;35.80;;;16.30;;
50709;SDS011;37033;49.994;21.992;2023-02-28T01:08:16;41.70;;;17.50;;
50709;SDS011;37033;49.994;21.992;2023-02-28T01:11:10;39.40;;;16.00;;
50709;SDS011;37033;49.994;21.992;2023-02-28T01:14:02;40.40;;;17.10;;
50709;SDS011;37033;49.994;21.992;2023-02-28T01:16:52;43.90;;;17.80;;
50709;SDS011;37033;49.994;21.992;2023-02-28T01:19:41;42.30;;;18.20;;
50709;SDS011;37033;49.994;21.992;2023-02-28T01:22:31;35.70;;;16.00;;
50709;SDS011;37033;49.994;21.992;2023-02-28T01:25:21;38.80;;;17.70;;
50709;SDS011;37033;49.994;21.992;2023-02-28T01:28:11;35.30;;;15.30;;
50709;SDS011;37033;49.994;21.992;2023-02-28T01:31:00;38.40;;;17.00;;
50709;SDS011;37033;49.994;21.992;2023-02-28T01:33:50;40.40;;;15.80;;
50709;SDS011;37033;49.994;21.992;2023-02-28T01:36:39;37.50;;;16.10;;
50709;SDS011;37033;49.994;21.992;2023-02-28T01:39:30;39.30;;;17.10;;
50709;SDS011;37033;49.994;21.992;2023-02-28T01:42:20;42.30;;;16.30;;
50709;SDS011;37033;49.994;21.992;2023-02-28T01:45:20;36.60;;;16.10;;
50709;SDS011;37033;49.994;21.992;2023-02-28T01:48:13;45.50;;;16.80;;
50709;SDS011;37033;49.994;21.992;2023-02-28T01:51:03;40.40;;;18.00;;
50709;SDS011;37033;49.994;21.992;2023-02-28T01:53:58;39.30;;;18.30;;
50709;SDS011;37033;49.994;21.992;2023-02-28T01:56:51;39.90;;;16.30;;
50709;SDS011;37033;49.994;21.992;2023-02-28T01:59:47;33.70;;;16.70;;
50709;SDS011;37033;49.994;21.992;2023-02-28T02:05:33;42.60;;;16.10;;
50709;SDS011;37033;49.994;21.992;2023-02-28T02:08:25;38.00;;;16.80;;
50709;SDS011;37033;49.994;21.992;2023-02-28T02:11:18;34.60;;;15.70;;
50709;SDS011;37033;49.994;21.992;2023-02-28T02:14:15;41.10;;;17.40;;
50709;SDS011;37033;49.994;21.992;2023-02-28T02:17:18;42.00;;;18.20;;
50709;SDS011;37033;49.994;21.992;2023-02-28T02:24:03;56.70;;;22.90;;
50709;SDS011;37033;49.994;21.992;2023-02-28T02:27:38;56.30;;;22.60;;
50709;SDS011;37033;49.994;21.992;2023-02-28T02:30:40;67.10;;;24.90;;
50709;SDS011;37033;49.994;21.992;2023-02-28T02:37:00;57.40;;;23.90;;
50709;SDS011;37033;49.994;21.992;2023-02-28T02:40:00;61.30;;;23.70;;
50709;SDS011;37033;49.994;21.992;2023-02-28T02:42:58;52.70;;;22.50;;
50709;SDS011;37033;49.994;21.992;2023-02-28T02:45:55;64.40;;;24.80;;
50709;SDS011;37033;49.994;21.992;2023-02-28T02:48:48;63.10;;;23.90;;
50709;SDS011;37033;49.994;21.992;2023-02-28T02:51:42;60.30;;;23.40;;
50709;SDS011;37033;49.994;21.992;2023-02-28T02:54:34;61.20;;;22.60;;
50709;SDS011;37033;49.994;21.992;2023-02-28T02:57:27;54.50;;;21.00;;
50709;SDS011;37033;49.994;21.992;2023-02-28T03:00:24;57.20;;;23.70;;
50709;SDS011;37033;49.994;21.992;2023-02-28T03:03:18;52.80;;;21.30;;
50709;SDS011;37033;49.994;21.992;2023-02-28T03:06:15;53.10;;;22.40;;
50709;SDS011;37033;49.994;21.992;2023-02-28T03:09:05;45.70;;;19.70;;
50709;SDS011;37033;49.994;21.992;2023-02-28T03:11:55;53.80;;;22.30;;
50709;SDS011;37033;49.994;21.992;2023-02-28T03:14:49;57.10;;;23.10;;
50709;SDS011;37033;49.994;21.992;2023-02-28T03:17:52;58.30;;;22.70;;
50709;SDS011;37033;49.994;21.992;2023-02-28T03:20:51;54.90;;;21.30;;
50709;SDS011;37033;49.994;21.992;2023-02-28T03:23:51;55.10;;;22.60;;
50709;SDS011;37033;49.994;21.992;2023-02-28T03:26:50;55.80;;;21.90;;
50709;SDS011;37033;49.994;21.992;2023-02-28T03:29:47;50.30;;;21.70;;
50709;SDS011;37033;49.994;21.992;2023-02-28T03:32:42;65.60;;;25.10;;
50709;SDS011;37033;49.994;21.992;2023-02-28T03:35:39;58.20;;;23.50;;
50709;SDS011;37033;49.994;21.992;2023-02-28T03:38:33;70.90;;;24.00;;
50709;SDS011;37033;49.994;21.992;2023-02-28T03:41:27;70.90;;;24.50;;
50709;SDS011;37033;49.994;21.992;2023-02-28T03:44:24;56.20;;;24.50;;
50709;SDS011;37033;49.994;21.992;2023-02-28T03:47:17;56.80;;;23.50;;
50709;SDS011;37033;49.994;21.992;2023-02-28T03:50:12;65.90;;;25.50;;
50709;SDS011;37033;49.994;21.992;2023-02-28T03:53:10;58.30;;;23.10;;
50709;SDS011;37033;49.994;21.992;2023-02-28T03:56:03;59.50;;;23.40;;
50709;SDS011;37033;49.994;21.992;2023-02-28T03:59:00;59.20;;;23.70;;
50709;SDS011;37033;49.994;21.992;2023-02-28T04:01:53;49.80;;;22.30;;
50709;SDS011;37033;49.994;21.992;2023-02-28T04:04:45;53.00;;;21.70;;
50709;SDS011;37033;49.994;21.992;2023-02-28T04:07:36;54.80;;;22.10;;
50709;SDS011;37033;49.994;21.992;2023-02-28T04:10:26;51.80;;;21.10;;
50709;SDS011;37033;49.994;21.992;2023-02-28T04:13:15;46.50;;;20.70;;
50709;SDS011;37033;49.994;21.992;2023-02-28T04:16:07;58.10;;;21.10;;
50709;SDS011;37033;49.994;21.992;2023-02-28T04:18:58;47.00;;;20.20;;
50709;SDS011;37033;49.994;21.992;2023-02-28T04:21:50;57.90;;;21.50;;
50709;SDS011;37033;49.994;21.992;2023-02-28T04:24:40;53.20;;;20.40;;
50709;SDS011;37033;49.994;21.992;2023-02-28T04:27:30;56.00;;;21.30;;
50709;SDS011;37033;49.994;21.992;2023-02-28T04:30:20;50.70;;;21.00;;
50709;SDS011;37033;49.994;21.992;2023-02-28T04:33:09;44.80;;;19.10;;
50709;SDS011;37033;49.994;21.992;2023-02-28T04:36:00;47.80;;;18.90;;
50709;SDS011;37033;49.994;21.992;2023-02-28T04:38:51;53.10;;;20.20;;
50709;SDS011;37033;49.994;21.992;2023-02-28T04:41:41;45.90;;;18.30;;
50709;SDS011;37033;49.994;21.992;2023-02-28T04:44:30;42.60;;;19.30;;
50709;SDS011;37033;49.994;21.992;2023-02-28T04:47:20;40.60;;;17.80;;
50709;SDS011;37033;49.994;21.992;2023-02-28T04:50:10;44.50;;;19.00;;
50709;SDS011;37033;49.994;21.992;2023-02-28T04:53:00;65.70;;;31.50;;
50709;SDS011;37033;49.994;21.992;2023-02-28T04:55:49;58.30;;;23.10;;
50709;SDS011;37033;49.994;21.992;2023-02-28T04:58:39;55.20;;;20.90;;
50709;SDS011;37033;49.994;21.992;2023-02-28T05:01:29;56.30;;;21.60;;
50709;SDS011;37033;49.994;21.992;2023-02-28T05:04:20;51.40;;;19.90;;
50709;SDS011;37033;49.994;21.992;2023-02-28T05:07:10;62.90;;;23.60;;
50709;SDS011;37033;49.994;21.992;2023-02-28T05:09:59;75.10;;;27.10;;
50709;SDS011;37033;49.994;21.992;2023-02-28T05:12:49;93.40;;;28.10;;
50709;SDS011;37033;49.994;21.992;2023-02-28T05:15:39;100.50;;;29.50;;
50709;SDS011;37033;49.994;21.992;2023-02-28T05:18:28;81.00;;;27.40;;
50709;SDS011;37033;49.994;21.992;2023-02-28T05:21:22;64.10;;;25.60;;
50709;SDS011;37033;49.994;21.992;2023-02-28T05:24:15;54.90;;;21.50;;
50709;SDS011;37033;49.994;21.992;2023-02-28T05:27:09;54.80;;;20.80;;
50709;SDS011;37033;49.994;21.992;2023-02-28T05:29:59;47.50;;;20.80;;
50709;SDS011;37033;49.994;21.992;2023-02-28T05:32:50;55.10;;;20.00;;
50709;SDS011;37033;49.994;21.992;2023-02-28T05:35:40;48.30;;;19.20;;
50709;SDS011;37033;49.994;21.992;2023-02-28T05:38:31;49.90;;;20.80;;
50709;SDS011;37033;49.994;21.992;2023-02-28T05:41:21;76.40;;;27.20;;
50709;SDS011;37033;49.994;21.992;2023-02-28T05:44:10;109.10;;;37.20;;
50709;SDS011;37033;49.994;21.992;2023-02-28T05:47:00;198.70;;;63.70;;
50709;SDS011;37033;49.994;21.992;2023-02-28T05:49:49;144.20;;;47.60;;
50709;SDS011;37033;49.994;21.992;2023-02-28T05:52:39;121.70;;;40.90;;
50709;SDS011;37033;49.994;21.992;2023-02-28T05:55:29;106.30;;;37.50;;
50709;SDS011;37033;49.994;21.992;2023-02-28T05:58:19;119.40;;;41.90;;
50709;SDS011;37033;49.994;21.992;2023-02-28T06:01:24;98.30;;;37.00;;
50709;SDS011;37033;49.994;21.992;2023-02-28T06:04:20;90.40;;;32.30;;
50709;SDS011;37033;49.994;21.992;2023-02-28T06:07:11;132.70;;;40.00;;
50709;SDS011;37033;49.994;21.992;2023-02-28T06:10:01;152.30;;;46.90;;
50709;SDS011;37033;49.994;21.992;2023-02-28T06:12:52;100.90;;;34.60;;
50709;SDS011;37033;49.994;21.992;2023-02-28T06:15:41;92.50;;;29.90;;
50709;SDS011;37033;49.994;21.992;2023-02-28T06:18:31;57.90;;;25.30;;
50709;SDS011;37033;49.994;21.992;2023-02-28T06:21:20;55.90;;;22.80;;
50709;SDS011;37033;49.994;21.992;2023-02-28T06:24:10;55.10;;;22.00;;
50709;SDS011;37033;49.994;21.992;2023-02-28T06:26:59;60.20;;;24.90;;
50709;SDS011;37033;49.994;21.992;2023-02-28T06:29:53;62.50;;;25.80;;
50709;SDS011;37033;49.994;21.992;2023-02-28T06:32:43;77.10;;;27.50;;
50709;SDS011;37033;49.994;21.992;2023-02-28T06:35:35;77.40;;;29.40;;
50709;SDS011;37033;49.994;21.992;2023-02-28T06:38:25;83.50;;;30.70;;
50709;SDS011;37033;49.994;21.992;2023-02-28T06:41:15;113.50;;;38.00;;
50709;SDS011;37033;49.994;21.992;2023-02-28T06:44:05;89.30;;;31.80;;
50709;SDS011;37033;49.994;21.992;2023-02-28T06:46:58;80.00;;;29.80;;
50709;SDS011;37033;49.994;21.992;2023-02-28T06:49:49;68.70;;;26.70;;
50709;SDS011;37033;49.994;21.992;2023-02-28T06:52:39;103.80;;;38.50;;
50709;SDS011;37033;49.994;21.992;2023-02-28T06:55:29;106.80;;;38.80;;
50709;SDS011;37033;49.994;21.992;2023-02-28T06:58:19;109.40;;;41.10;;
50709;SDS011;37033;49.994;21.992;2023-02-28T07:01:08;118.00;;;42.70;;
50709;SDS011;37033;49.994;21.992;2023-02-28T07:03:58;109.80;;;39.50;;
50709;SDS011;37033;49.994;21.992;2023-02-28T07:06:48;101.40;;;36.80;;
50709;SDS011;37033;49.994;21.992;2023-02-28T07:09:38;74.70;;;28.10;;
50709;SDS011;37033;49.994;21.992;2023-02-28T07:12:27;82.00;;;25.00;;
50709;SDS011;37033;49.994;21.992;2023-02-28T07:15:17;64.50;;;23.20;;
50709;SDS011;37033;49.994;21.992;2023-02-28T07:18:06;58.10;;;20.80;;
50709;SDS011;37033;49.994;21.992;2023-02-28T07:20:56;61.90;;;22.10;;
50709;SDS011;37033;49.994;21.992;2023-02-28T07:23:46;76.50;;;23.80;;
50709;SDS011;37033;49.994;21.992;2023-02-28T07:26:35;56.40;;;21.20;;
50709;SDS011;37033;49.994;21.992;2023-02-28T07:29:25;47.00;;;20.40;;
50709;SDS011;37033;49.994;21.992;2023-02-28T07:32:14;51.30;;;20.10;;
50709;SDS011;37033;49.994;21.992;2023-02-28T07:35:05;45.20;;;18.70;;
50709;SDS011;37033;49.994;21.992;2023-02-28T07:37:56;58.50;;;19.10;;
50709;SDS011;37033;49.994;21.992;2023-02-28T07:40:46;53.30;;;20.40;;
50709;SDS011;37033;49.994;21.992;2023-02-28T07:43:35;56.30;;;21.00;;
50709;SDS011;37033;49.994;21.992;2023-02-28T07:46:25;49.50;;;20.90;;
50709;SDS011;37033;49.994;21.992;2023-02-28T07:49:21;42.90;;;17.40;;
50709;SDS011;37033;49.994;21.992;2023-02-28T07:52:11;40.40;;;16.10;;
50709;SDS011;37033;49.994;21.992;2023-02-28T07:55:00;37.70;;;15.90;;
50709;SDS011;37033;49.994;21.992;2023-02-28T07:57:51;45.40;;;18.10;;
50709;SDS011;37033;49.994;21.992;2023-02-28T08:00:40;40.70;;;15.80;;
50709;SDS011;37033;49.994;21.992;2023-02-28T08:03:30;35.70;;;15.60;;
50709;SDS011;37033;49.994;21.992;2023-02-28T08:06:20;44.50;;;17.30;;
50709;SDS011;37033;49.994;21.992;2023-02-28T08:09:11;31.20;;;15.40;;
50709;SDS011;37033;49.994;21.992;2023-02-28T08:12:01;38.20;;;17.20;;
50709;SDS011;37033;49.994;21.992;2023-02-28T08:14:50;34.90;;;15.30;;
50709;SDS011;37033;49.994;21.992;2023-02-28T08:17:40;37.60;;;17.60;;
50709;SDS011;37033;49.994;21.992;2023-02-28T08:20:30;31.80;;;14.40;;
50709;SDS011;37033;49.994;21.992;2023-02-28T08:23:20;36.50;;;14.80;;
50709;SDS011;37033;49.994;21.992;2023-02-28T08:26:10;33.40;;;15.80;;
50709;SDS011;37033;49.994;21.992;2023-02-28T08:29:00;36.10;;;15.10;;
50709;SDS011;37033;49.994;21.992;2023-02-28T08:31:50;37.20;;;16.20;;
50709;SDS011;37033;49.994;21.992;2023-02-28T08:34:40;20.30;;;10.20;;
50709;SDS011;37033;49.994;21.992;2023-02-28T08:37:29;21.30;;;10.90;;
50709;SDS011;37033;49.994;21.992;2023-02-28T08:40:20;21.40;;;8.50;;
50709;SDS011;37033;49.994;21.992;2023-02-28T08:43:09;17.70;;;9.20;;
50709;SDS011;37033;49.994;21.992;2023-02-28T08:45:59;14.80;;;8.50;;
50709;SDS011;37033;49.994;21.992;2023-02-28T08:48:52;18.60;;;7.30;;
50709;SDS011;37033;49.994;21.992;2023-02-28T08:51:42;18.60;;;9.20;;
50709;SDS011;37033;49.994;21.992;2023-02-28T08:54:32;13.30;;;7.50;;
50709;SDS011;37033;49.994;21.992;2023-02-28T08:57:22;14.70;;;8.50;;
50709;SDS011;37033;49.994;21.992;2023-02-28T09:00:14;17.70;;;8.70;;
50709;SDS011;37033;49.994;21.992;2023-02-28T09:03:04;15.90;;;9.20;;
50709;SDS011;37033;49.994;21.992;2023-02-28T09:05:54;16.00;;;7.90;;
50709;SDS011;37033;49.994;21.992;2023-02-28T09:08:46;11.50;;;6.40;;
50709;SDS011;37033;49.994;21.992;2023-02-28T09:11:37;12.40;;;4.10;;
50709;SDS011;37033;49.994;21.992;2023-02-28T09:14:26;13.60;;;6.40;;
50709;SDS011;37033;49.994;21.992;2023-02-28T09:17:16;14.80;;;7.10;;
50709;SDS011;37033;49.994;21.992;2023-02-28T09:20:08;9.90;;;6.80;;
50709;SDS011;37033;49.994;21.992;2023-02-28T09:22:59;10.70;;;6.90;;
50709;SDS011;37033;49.994;21.992;2023-02-28T09:25:48;19.10;;;7.60;;
50709;SDS011;37033;49.994;21.992;2023-02-28T09:28:39;12.80;;;6.90;;
50709;SDS011;37033;49.994;21.992;2023-02-28T09:31:30;14.30;;;7.30;;
50709;SDS011;37033;49.994;21.992;2023-02-28T09:34:19;11.00;;;6.90;;
50709;SDS011;37033;49.994;21.992;2023-02-28T09:37:09;7.70;;;5.50;;
50709;SDS011;37033;49.994;21.992;2023-02-28T09:39:58;16.00;;;7.50;;
50709;SDS011;37033;49.994;21.992;2023-02-28T09:42:50;12.00;;;7.20;;
50709;SDS011;37033;49.994;21.992;2023-02-28T09:45:46;11.40;;;5.80;;
50709;SDS011;37033;49.994;21.992;2023-02-28T09:48:45;13.80;;;7.20;;
50709;SDS011;37033;49.994;21.992;2023-02-28T09:51:45;9.20;;;7.00;;
50709;SDS011;37033;49.994;21.992;2023-02-28T09:54:38;10.70;;;6.30;;
50709;SDS011;37033;49.994;21.992;2023-02-28T09:57:29;13.20;;;6.70;;
50709;SDS011;37033;49.994;21.992;2023-02-28T10:00:27;11.80;;;6.70;;
50709;SDS011;37033;49.994;21.992;2023-02-28T10:03:25;10.80;;;6.40;;
50709;SDS011;37033;49.994;21.992;2023-02-28T10:06:20;13.70;;;7.00;;
50709;SDS011;37033;49.994;21.992;2023-02-28T10:09:17;11.30;;;6.90;;
50709;SDS011;37033;49.994;21.992;2023-02-28T10:12:10;13.40;;;6.70;;
50709;SDS011;37033;49.994;21.992;2023-02-28T10:15:07;10.40;;;5.90;;
50709;SDS011;37033;49.994;21.992;2023-02-28T10:18:04;10.20;;;6.40;;
50709;SDS011;37033;49.994;21.992;2023-02-28T10:20:58;10.10;;;6.50;;
50709;SDS011;37033;49.994;21.992;2023-02-28T10:23:49;11.80;;;6.20;;
50709;SDS011;37033;49.994;21.992;2023-02-28T10:26:47;9.70;;;5.20;;
50709;SDS011;37033;49.994;21.992;2023-02-28T10:29:42;10.40;;;6.50;;
50709;SDS011;37033;49.994;21.992;2023-02-28T10:32:34;9.60;;;5.60;;
50709;SDS011;37033;49.994;21.992;2023-02-28T10:35:26;8.60;;;5.50;;
50709;SDS011;37033;49.994;21.992;2023-02-28T10:38:17;8.90;;;5.80;;
50709;SDS011;37033;49.994;21.992;2023-02-28T10:41:09;9.20;;;6.10;;
50709;SDS011;37033;49.994;21.992;2023-02-28T10:47:13;8.60;;;6.30;;
50709;SDS011;37033;49.994;21.992;2023-02-28T10:50:04;13.20;;;6.60;;
50709;SDS011;37033;49.994;21.992;2023-02-28T10:53:23;5.90;;;4.50;;
50709;SDS011;37033;49.994;21.992;2023-02-28T10:56:19;8.30;;;6.20;;
50709;SDS011;37033;49.994;21.992;2023-02-28T10:59:23;10.50;;;7.10;;
50709;SDS011;37033;49.994;21.992;2023-02-28T11:02:31;11.20;;;6.30;;
50709;SDS011;37033;49.994;21.992;2023-02-28T11:05:29;11.90;;;7.00;;
50709;SDS011;37033;49.994;21.992;2023-02-28T11:08:21;11.30;;;7.30;;
50709;SDS011;37033;49.994;21.992;2023-02-28T11:11:11;11.40;;;6.30;;
50709;SDS011;37033;49.994;21.992;2023-02-28T11:14:04;11.40;;;6.80;;
50709;SDS011;37033;49.994;21.992;2023-02-28T11:17:13;11.50;;;6.80;;
50709;SDS011;37033;49.994;21.992;2023-02-28T11:20:14;10.20;;;6.70;;
50709;SDS011;37033;49.994;21.992;2023-02-28T11:23:10;10.20;;;7.00;;
50709;SDS011;37033;49.994;21.992;2023-02-28T11:26:02;9.60;;;6.10;;
50709;SDS011;37033;49.994;21.992;2023-02-28T11:29:03;12.30;;;7.40;;
50709;SDS011;37033;49.994;21.992;2023-02-28T11:32:05;14.20;;;7.60;;
50709;SDS011;37033;49.994;21.992;2023-02-28T11:35:04;11.70;;;6.90;;
50709;SDS011;37033;49.994;21.992;2023-02-28T11:38:09;14.80;;;7.30;;
50709;SDS011;37033;49.994;21.992;2023-02-28T11:41:05;10.40;;;6.00;;
50709;SDS011;37033;49.994;21.992;2023-02-28T11:44:08;11.70;;;6.30;;
50709;SDS011;37033;49.994;21.992;2023-02-28T11:47:09;10.80;;;6.50;;
50709;SDS011;37033;49.994;21.992;2023-02-28T11:50:07;10.40;;;6.40;;
50709;SDS011;37033;49.994;21.992;2023-02-28T11:53:10;10.40;;;6.90;;
50709;SDS011;37033;49.994;21.992;2023-02-28T11:56:11;11.20;;;7.20;;
50709;SDS011;37033;49.994;21.992;2023-02-28T11:59:17;10.90;;;5.50;;
50709;SDS011;37033;49.994;21.992;2023-02-28T12:02:26;10.80;;;7.40;;
50709;SDS011;37033;49.994;21.992;2023-02-28T12:05:24;11.30;;;6.90;;
50709;SDS011;37033;49.994;21.992;2023-02-28T12:08:25;11.70;;;6.40;;
50709;SDS011;37033;49.994;21.992;2023-02-28T12:11:29;10.10;;;6.90;;
50709;SDS011;37033;49.994;21.992;2023-02-28T12:18:07;11.00;;;7.20;;
50709;SDS011;37033;49.994;21.992;2023-02-28T12:21:10;12.60;;;6.40;;
50709;SDS011;37033;49.994;21.992;2023-02-28T12:24:14;12.20;;;6.90;;
50709;SDS011;37033;49.994;21.992;2023-02-28T12:27:26;10.30;;;7.10;;
50709;SDS011;37033;49.994;21.992;2023-02-28T12:30:21;14.00;;;7.30;;
50709;SDS011;37033;49.994;21.992;2023-02-28T12:33:14;9.80;;;6.40;;
50709;SDS011;37033;49.994;21.992;2023-02-28T12:36:09;10.00;;;6.70;;
50709;SDS011;37033;49.994;21.992;2023-02-28T12:39:04;11.30;;;6.60;;
50709;SDS011;37033;49.994;21.992;2023-02-28T12:42:01;11.10;;;6.10;;
50709;SDS011;37033;49.994;21.992;2023-02-28T12:44:58;10.90;;;7.10;;
50709;SDS011;37033;49.994;21.992;2023-02-28T12:47:50;21.60;;;7.50;;
50709;SDS011;37033;49.994;21.992;2023-02-28T12:50:43;14.60;;;7.60;;
50709;SDS011;37033;49.994;21.992;2023-02-28T12:53:35;12.60;;;8.10;;
50709;SDS011;37033;49.994;21.992;2023-02-28T12:56:36;8.30;;;6.30;;
50709;SDS011;37033;49.994;21.992;2023-02-28T12:59:33;11.90;;;7.70;;
50709;SDS011;37033;49.994;21.992;2023-02-28T13:05:58;10.00;;;6.50;;
50709;SDS011;37033;49.994;21.992;2023-02-28T13:09:02;10.00;;;6.50;;
50709;SDS011;37033;49.994;21.992;2023-02-28T13:11:56;9.90;;;6.30;;
50709;SDS011;37033;49.994;21.992;2023-02-28T13:14:47;9.90;;;5.30;;
50709;SDS011;37033;49.994;21.992;2023-02-28T13:17:37;8.40;;;5.40;;
50709;SDS011;37033;49.994;21.992;2023-02-28T13:20:31;11.50;;;6.50;;
50709;SDS011;37033;49.994;21.992;2023-02-28T13:23:38;8.30;;;5.90;;
50709;SDS011;37033;49.994;21.992;2023-02-28T13:33:35;10.60;;;6.70;;
50709;SDS011;37033;49.994;21.992;2023-02-28T13:36:46;13.70;;;6.70;;
50709;SDS011;37033;49.994;21.992;2023-02-28T13:39:48;8.90;;;6.10;;
50709;SDS011;37033;49.994;21.992;2023-02-28T13:42:46;12.90;;;6.90;;
50709;SDS011;37033;49.994;21.992;2023-02-28T13:45:37;10.40;;;5.80;;
50709;SDS011;37033;49.994;21.992;2023-02-28T13:48:27;12.40;;;6.10;;
50709;SDS011;37033;49.994;21.992;2023-02-28T13:51:37;9.70;;;5.80;;
50709;SDS011;37033;49.994;21.992;2023-02-28T13:54:33;9.40;;;5.80;;
50709;SDS011;37033;49.994;21.992;2023-02-28T13:57:34;8.80;;;5.40;;
50709;SDS011;37033;49.994;21.992;2023-02-28T14:00:37;10.80;;;5.70;;
50709;SDS011;37033;49.994;21.992;2023-02-28T14:03:53;8.70;;;6.10;;
50709;SDS011;37033;49.994;21.992;2023-02-28T14:06:56;9.10;;;5.80;;
50709;SDS011;37033;49.994;21.992;2023-02-28T14:09:51;8.10;;;5.60;;
50709;SDS011;37033;49.994;21.992;2023-02-28T14:12:54;8.50;;;5.80;;
50709;SDS011;37033;49.994;21.992;2023-02-28T14:15:49;9.30;;;6.00;;
50709;SDS011;37033;49.994;21.992;2023-02-28T14:18:49;10.10;;;5.60;;
50709;SDS011;37033;49.994;21.992;2023-02-28T14:21:50;9.80;;;5.50;;
50709;SDS011;37033;49.994;21.992;2023-02-28T14:25:07;8.80;;;5.00;;
50709;SDS011;37033;49.994;21.992;2023-02-28T14:28:06;8.00;;;5.30;;
50709;SDS011;37033;49.994;21.992;2023-02-28T14:31:08;10.30;;;6.10;;
50709;SDS011;37033;49.994;21.992;2023-02-28T14:34:05;4.70;;;3.10;;
50709;SDS011;37033;49.994;21.992;2023-02-28T14:37:10;4.50;;;3.50;;
50709;SDS011;37033;49.994;21.992;2023-02-28T14:40:11;8.70;;;5.00;;
50709;SDS011;37033;49.994;21.992;2023-02-28T14:43:03;8.60;;;5.20;;
50709;SDS011;37033;49.994;21.992;2023-02-28T14:46:06;6.30;;;3.40;;
50709;SDS011;37033;49.994;21.992;2023-02-28T14:49:00;5.70;;;3.90;;
50709;SDS011;37033;49.994;21.992;2023-02-28T14:52:01;7.00;;;5.20;;
50709;SDS011;37033;49.994;21.992;2023-02-28T14:54:56;7.90;;;5.60;;
50709;SDS011;37033;49.994;21.992;2023-02-28T14:57:54;7.70;;;5.70;;
50709;SDS011;37033;49.994;21.992;2023-02-28T15:00:48;9.70;;;5.40;;
50709;SDS011;37033;49.994;21.992;2023-02-28T15:03:39;7.20;;;5.50;;
50709;SDS011;37033;49.994;21.992;2023-02-28T15:06:31;11.40;;;5.80;;
50709;SDS011;37033;49.994;21.992;2023-02-28T15:09:21;11.40;;;7.40;;
50709;SDS011;37033;49.994;21.992;2023-02-28T15:12:12;11.10;;;7.00;;
50709;SDS011;37033;49.994;21.992;2023-02-28T15:15:03;12.00;;;7.00;;
50709;SDS011;37033;49.994;21.992;2023-02-28T15:18:03;8.70;;;6.40;;
50709;SDS011;37033;49.994;21.992;2023-02-28T15:20:56;14.00;;;8.10;;
50709;SDS011;37033;49.994;21.992;2023-02-28T15:23:50;35.10;;;16.20;;
50709;SDS011;37033;49.994;21.992;2023-02-28T15:26:43;29.30;;;15.40;;
50709;SDS011;37033;49.994;21.992;2023-02-28T15:29:41;15.10;;;8.00;;
50709;SDS011;37033;49.994;21.992;2023-02-28T15:32:36;13.60;;;7.30;;
50709;SDS011;37033;49.994;21.992;2023-02-28T15:35:28;10.70;;;6.70;;
50709;SDS011;37033;49.994;21.992;2023-02-28T15:38:21;14.70;;;8.30;;
50709;SDS011;37033;49.994;21.992;2023-02-28T15:41:23;8.80;;;7.10;;
50709;SDS011;37033;49.994;21.992;2023-02-28T15:44:15;15.20;;;8.70;;
50709;SDS011;37033;49.994;21.992;2023-02-28T15:47:16;13.70;;;8.00;;
50709;SDS011;37033;49.994;21.992;2023-02-28T15:50:10;11.50;;;7.40;;
50709;SDS011;37033;49.994;21.992;2023-02-28T15:53:02;11.10;;;7.10;;
50709;SDS011;37033;49.994;21.992;2023-02-28T15:55:56;12.40;;;7.00;;
50709;SDS011;37033;49.994;21.992;2023-02-28T15:58:50;11.90;;;7.70;;
50709;SDS011;37033;49.994;21.992;2023-02-28T16:01:43;12.90;;;8.50;;
50709;SDS011;37033;49.994;21.992;2023-02-28T16:04:33;19.10;;;10.80;;
50709;SDS011;37033;49.994;21.992;2023-02-28T16:07:23;15.90;;;9.90;;
50709;SDS011;37033;49.994;21.992;2023-02-28T16:10:14;21.60;;;11.50;;
50709;SDS011;37033;49.994;21.992;2023-02-28T16:13:03;22.20;;;12.60;;
50709;SDS011;37033;49.994;21.992;2023-02-28T16:15:53;26.30;;;13.30;;
50709;SDS011;37033;49.994;21.992;2023-02-28T16:18:43;31.30;;;15.30;;
50709;SDS011;37033;49.994;21.992;2023-02-28T16:21:33;28.20;;;15.80;;
50709;SDS011;37033;49.994;21.992;2023-02-28T16:24:23;30.60;;;17.50;;
50709;SDS011;37033;49.994;21.992;2023-02-28T16:27:16;31.20;;;15.90;;
50709;SDS011;37033;49.994;21.992;2023-02-28T16:30:15;28.40;;;15.40;;
50709;SDS011;37033;49.994;21.992;2023-02-28T16:33:08;46.30;;;22.70;;
50709;SDS011;37033;49.994;21.992;2023-02-28T16:35:58;61.60;;;27.20;;
50709;SDS011;37033;49.994;21.992;2023-02-28T16:38:48;56.90;;;25.40;;
50709;SDS011;37033;49.994;21.992;2023-02-28T16:41:38;54.40;;;24.10;;
50709;SDS011;37033;49.994;21.992;2023-02-28T16:44:33;52.20;;;20.70;;
50709;SDS011;37033;49.994;21.992;2023-02-28T16:47:23;41.40;;;19.00;;
50709;SDS011;37033;49.994;21.992;2023-02-28T16:50:15;39.90;;;18.20;;
50709;SDS011;37033;49.994;21.992;2023-02-28T16:53:06;42.80;;;17.80;;
50709;SDS011;37033;49.994;21.992;2023-02-28T16:55:56;41.00;;;18.30;;
50709;SDS011;37033;49.994;21.992;2023-02-28T16:58:48;44.10;;;19.60;;
50709;SDS011;37033;49.994;21.992;2023-02-28T17:01:39;39.20;;;17.80;;
50709;SDS011;37033;49.994;21.992;2023-02-28T17:04:29;49.30;;;19.50;;
50709;SDS011;37033;49.994;21.992;2023-02-28T17:07:19;52.60;;;20.30;;
50709;SDS011;37033;49.994;21.992;2023-02-28T17:10:13;56.60;;;21.50;;
50709;SDS011;37033;49.994;21.992;2023-02-28T17:13:05;54.50;;;22.00;;
50709;SDS011;37033;49.994;21.992;2023-02-28T17:15:56;64.60;;;24.90;;
50709;SDS011;37033;49.994;21.992;2023-02-28T17:18:46;99.40;;;36.70;;